Time;durP1;ratioP1;P1;durP2;ratioP2;P2;SDS_P1;SDS_P2;PMS_P1;PMS_P2;Temp;Humidity;BMP_temperature;BMP_pressure;BME280_temperature;BME280_humidity;BME280_pressure;Samples;Min_cycle;Max_cycle;Signal;HPM_P1;HPM_P2
2022/05/09 00:00:22;;;;;;;9.10;3.90;;;;;;;12.39;53.14;102565.69;4789439;29;119142;-80
2022/05/09 00:02:49;;;;;;;8.75;3.70;;;;;;;12.43;53.56;102582.16;4794026;29;120017;-79
2022/05/09 00:05:18;;;;;;;8.65;4.20;;;;;;;12.41;53.25;102576.28;4807707;29;119172;-79
2022/05/09 00:07:44;;;;;;;12.95;4.00;;;;;;;12.30;53.30;102573.69;4802716;29;120030;-79
2022/05/09 00:10:13;;;;;;;14.48;4.50;;;;;;;12.36;53.20;102593.28;4782477;29;119308;-79
2022/05/09 00:12:38;;;;;;;7.75;4.22;;;;;;;12.25;53.37;102572.19;4788225;29;119778;-79
2022/05/09 00:15:11;;;;;;;13.65;4.22;;;;;;;12.26;53.15;102582.00;4793839;29;119755;-78
2022/05/09 00:17:37;;;;;;;14.40;4.50;;;;;;;12.19;53.18;102576.63;4812580;29;119290;-79
2022/05/09 00:20:03;;;;;;;11.68;4.30;;;;;;;12.23;53.19;102582.84;4803330;29;119257;-79
2022/05/09 00:22:29;;;;;;;14.38;4.15;;;;;;;12.14;53.25;102579.06;4803993;29;121174;-79
2022/05/09 00:24:59;;;;;;;10.10;3.95;;;;;;;12.17;53.65;102583.72;4820095;29;119238;-78
2022/05/09 00:27:25;;;;;;;9.35;3.78;;;;;;;12.12;53.78;102587.72;4807730;29;119839;-78
2022/05/09 00:29:53;;;;;;;13.93;4.07;;;;;;;12.11;53.91;102594.44;4801819;29;119254;-79
2022/05/09 00:32:19;;;;;;;7.95;3.65;;;;;;;12.07;54.08;102585.44;4794381;29;119937;-80
2022/05/09 00:34:44;;;;;;;9.60;4.40;;;;;;;12.08;53.90;102594.47;4803057;29;119253;-79
2022/05/09 00:37:10;;;;;;;10.25;3.90;;;;;;;11.98;54.00;102590.66;4796741;29;119265;-79
2022/05/09 00:39:36;;;;;;;10.80;4.20;;;;;;;11.90;53.70;102583.72;4787397;29;120961;-78
2022/05/09 00:42:11;;;;;;;8.40;3.60;;;;;;;11.89;54.10;102582.16;4789431;29;119313;-79
2022/05/09 00:44:38;;;;;;;14.05;4.32;;;;;;;11.86;54.07;102580.22;4780813;29;120350;-79
2022/05/09 00:47:03;;;;;;;11.50;3.90;;;;;;;11.92;54.49;102586.81;4783630;29;119236;-80
2022/05/09 00:49:32;;;;;;;10.90;3.95;;;;;;;11.86;54.81;102577.47;4801620;29;119330;-79
2022/05/09 00:52:03;;;;;;;13.32;4.10;;;;;;;11.88;54.61;102591.59;4800314;29;119213;-80
2022/05/09 00:54:37;;;;;;;8.20;4.07;;;;;;;11.88;54.73;102591.59;4799664;29;119310;-79
2022/05/09 00:57:14;;;;;;;8.48;3.53;;;;;;;11.82;54.50;102583.00;4800930;29;119192;-79
2022/05/09 00:59:40;;;;;;;9.70;3.63;;;;;;;11.82;54.16;102584.97;4801048;29;119937;-78
2022/05/09 01:02:07;;;;;;;12.13;3.70;;;;;;;11.72;53.91;102569.38;4803345;29;119615;-78
2022/05/09 01:04:41;;;;;;;9.27;3.67;;;;;;;11.78;54.25;102582.28;4800933;29;120274;-79
2022/05/09 01:07:07;;;;;;;10.95;3.90;;;;;;;11.69;54.45;102568.22;4807853;29;119290;-78
2022/05/09 01:09:36;;;;;;;12.13;4.18;;;;;;;11.74;54.65;102580.75;4798152;29;119494;-79
2022/05/09 01:12:03;;;;;;;13.55;4.43;;;;;;;11.62;54.91;102560.09;4797801;29;119624;-79
2022/05/09 01:14:32;;;;;;;12.57;3.78;;;;;;;11.68;55.08;102578.44;4799411;29;119294;-79
2022/05/09 01:16:59;;;;;;;10.98;4.05;;;;;;;11.65;55.04;102573.00;4797888;29;119521;-79
2022/05/09 01:19:32;;;;;;;13.38;3.90;;;;;;;11.67;55.19;102582.38;4794347;29;121304;-80
2022/05/09 01:21:59;;;;;;;10.75;3.80;;;;;;;11.66;55.02;102580.06;4786342;29;119355;-79
2022/05/09 01:24:28;;;;;;;8.75;3.53;;;;;;;11.65;55.15;102589.50;4802153;29;119287;-79
2022/05/09 01:26:55;;;;;;;12.50;4.28;;;;;;;11.54;54.91;102578.63;4800334;29;119233;-79
2022/05/09 01:30:02;;;;;;;8.52;4.30;;;;;;;11.55;55.25;102577.41;4800929;29;119481;-78
2022/05/09 01:32:38;;;;;;;11.95;4.25;;;;;;;11.56;55.64;102586.44;4795615;29;119378;-79
2022/05/09 01:35:27;;;;;;;11.95;4.63;;;;;;;11.52;55.55;102589.25;4789870;29;119641;-79
2022/05/09 01:38:04;;;;;;;10.85;4.40;;;;;;;11.48;55.79;102580.25;4796012;29;119343;-79
2022/05/09 01:40:30;;;;;;;9.13;3.80;;;;;;;11.37;55.01;102569.41;4799933;29;119238;-78
2022/05/09 01:42:55;;;;;;;10.95;4.40;;;;;;;11.41;55.65;102583.09;4796138;29;119853;-80
2022/05/09 01:45:21;;;;;;;9.25;4.13;;;;;;;11.41;55.40;102579.56;4803581;29;119191;-79
2022/05/09 01:50:33;;;;;;;10.02;4.32;;;;;;;11.33;55.79;102579.63;4782399;29;119293;-79
2022/05/09 01:52:58;;;;;;;11.82;4.53;;;;;;;11.34;55.80;102572.16;4794503;29;119694;-78
2022/05/09 01:55:25;;;;;;;11.35;3.97;;;;;;;11.31;55.54;102564.75;4800544;29;119424;-78
2022/05/09 01:57:51;;;;;;;9.18;3.90;;;;;;;11.31;55.93;102570.25;4792043;29;119245;-78
2022/05/09 02:00:20;;;;;;;11.98;4.55;;;;;;;11.32;55.96;102566.31;4813624;29;119723;-78
2022/05/09 02:02:49;;;;;;;15.18;5.10;;;;;;;11.28;56.15;102563.59;4803337;29;119476;-79
2022/05/09 02:05:15;;;;;;;12.75;4.75;;;;;;;11.29;55.90;102572.63;4806204;29;120694;-79
2022/05/09 02:07:40;;;;;;;12.23;4.70;;;;;;;11.25;56.13;102572.66;4793614;29;120596;-79
2022/05/09 02:10:06;;;;;;;9.90;3.95;;;;;;;11.15;56.45;102551.59;4803881;29;119463;-78
2022/05/09 02:12:33;;;;;;;13.60;4.28;;;;;;;11.22;55.92;102561.72;4802201;29;119307;-79
2022/05/09 02:14:59;;;;;;;11.95;4.30;;;;;;;11.12;56.04;102554.34;4803366;29;119379;-79
2022/05/09 02:17:25;;;;;;;12.30;4.28;;;;;;;11.18;56.47;102561.75;4800735;29;119571;-79
2022/05/09 02:19:50;;;;;;;17.90;4.90;;;;;;;11.19;56.25;102571.56;4793094;29;120000;-78
2022/05/09 02:22:16;;;;;;;13.10;4.22;;;;;;;11.18;56.38;102574.72;4793951;29;119418;-79
2022/05/09 02:24:45;;;;;;;11.52;4.32;;;;;;;11.12;56.18;102568.09;4806106;29;121669;-78
2022/05/09 02:27:11;;;;;;;10.90;4.15;;;;;;;11.12;56.29;102563.41;4798434;29;119992;-78
2022/05/09 02:29:39;;;;;;;14.20;4.70;;;;;;;11.12;56.61;102576.31;4788569;29;119463;-78
2022/05/09 02:32:06;;;;;;;10.02;3.85;;;;;;;11.04;56.49;102556.41;4783918;29;120473;-79
2022/05/09 02:34:32;;;;;;;10.95;4.00;;;;;;;11.00;56.30;102552.91;4784419;29;119537;-79
2022/05/09 02:36:59;;;;;;;9.40;4.40;;;;;;;11.08;56.25;102568.91;4798998;29;119397;-78
2022/05/09 02:39:24;;;;;;;14.35;4.38;;;;;;;11.09;56.46;102575.19;4797921;29;119367;-78
2022/05/09 02:41:50;;;;;;;14.68;4.20;;;;;;;11.02;56.29;102559.56;4799242;29;119685;-79
2022/05/09 02:44:18;;;;;;;9.25;3.60;;;;;;;11.06;56.43;102571.28;4799498;29;119383;-79
2022/05/09 02:46:44;;;;;;;9.00;4.13;;;;;;;11.04;56.27;102573.66;4808041;29;119285;-79
2022/05/09 02:49:11;;;;;;;8.68;3.92;;;;;;;11.04;56.69;102573.66;4801787;29;119881;-79
2022/05/09 02:51:37;;;;;;;13.13;3.75;;;;;;;11.03;56.71;102569.34;4800191;29;119628;-78
2022/05/09 02:54:03;;;;;;;10.38;3.83;;;;;;;10.98;56.45;102571.78;4804219;29;119501;-79
2022/05/09 02:56:29;;;;;;;11.05;4.22;;;;;;;10.94;56.77;102566.31;4783298;29;119778;-79
2022/05/09 02:58:55;;;;;;;12.23;4.38;;;;;;;10.96;56.70;102577.66;4801363;29;120062;-79
2022/05/09 03:01:20;;;;;;;10.50;4.18;;;;;;;10.95;56.63;102578.84;4800504;29;119214;-79
2022/05/09 03:06:37;;;;;;;8.90;3.88;;;;;;;10.90;56.58;102576.56;4800594;29;119417;-78
2022/05/09 03:09:03;;;;;;;13.15;4.03;;;;;;;10.84;56.69;102563.66;4800249;29;119543;-79
2022/05/09 03:11:30;;;;;;;11.27;4.47;;;;;;;10.77;56.66;102559.00;4798920;29;119502;-78
2022/05/09 03:13:56;;;;;;;10.93;3.90;;;;;;;10.78;56.41;102557.81;4785630;29;119201;-79
2022/05/09 03:16:22;;;;;;;11.20;4.13;;;;;;;10.83;56.54;102565.63;4800991;29;120147;-78
2022/05/09 03:18:51;;;;;;;10.70;4.07;;;;;;;10.87;56.61;102573.81;4803072;29;120621;-78
2022/05/09 03:21:21;;;;;;;11.25;3.88;;;;;;;10.84;57.29;102569.91;4800091;29;119744;-78
2022/05/09 03:23:46;;;;;;;12.85;3.78;;;;;;;10.82;56.92;102557.78;4783605;29;119492;-80
2022/05/09 03:26:12;;;;;;;10.88;4.32;;;;;;;10.86;56.89;102567.53;4795958;29;119725;-79
2022/05/09 03:28:38;;;;;;;9.13;3.70;;;;;;;10.86;57.04;102570.28;4801259;29;119508;-79
2022/05/09 03:31:04;;;;;;;12.68;3.95;;;;;;;10.85;56.98;102566.00;4792672;29;119147;-79
2022/05/09 03:33:30;;;;;;;9.52;3.95;;;;;;;10.86;57.29;102567.53;4785834;29;119203;-79
2022/05/09 03:35:59;;;;;;;8.98;4.00;;;;;;;10.84;57.26;102560.91;4781780;29;119680;-79
2022/05/09 03:38:25;;;;;;;12.13;4.40;;;;;;;10.75;56.90;102550.41;4789188;29;119170;-78
2022/05/09 03:40:54;;;;;;;8.38;3.85;;;;;;;10.83;57.14;102562.88;4794343;29;119404;-80
2022/05/09 03:43:23;;;;;;;8.32;3.75;;;;;;;10.84;57.40;102556.19;4782962;29;119191;-78
2022/05/09 03:45:50;;;;;;;9.20;4.28;;;;;;;10.85;57.39;102557.75;4771896;29;120578;-79
2022/05/09 03:48:19;;;;;;;9.30;4.10;;;;;;;10.86;57.72;102561.28;4801236;29;119666;-78
2022/05/09 03:50:45;;;;;;;7.68;3.97;;;;;;;10.86;57.79;102555.78;4800930;29;119671;-79
2022/05/09 03:53:11;;;;;;;11.27;4.28;;;;;;;10.88;57.30;102567.91;4787837;29;122071;-79
2022/05/09 03:55:36;;;;;;;9.70;4.28;;;;;;;10.76;57.18;102549.22;4802982;29;119796;-80
2022/05/09 03:58:03;;;;;;;12.23;4.28;;;;;;;10.87;57.60;102574.59;4800428;29;119647;-79
2022/05/09 04:00:32;;;;;;;11.88;4.38;;;;;;;10.90;57.75;102562.81;4801147;29;119148;-79
2022/05/09 04:02:59;;;;;;;10.02;4.10;;;;;;;10.92;57.66;102559.66;4790372;29;119461;-78
2022/05/09 04:05:30;;;;;;;12.25;4.47;;;;;;;10.81;57.34;102543.28;4783511;29;119648;-78
2022/05/09 04:07:57;;;;;;;9.55;3.97;;;;;;;10.91;57.52;102558.13;4792925;29;119767;-78
2022/05/09 04:10:30;;;;;;;14.32;4.70;;;;;;;10.84;58.10;102545.22;4799166;29;120521;-79
2022/05/09 04:12:56;;;;;;;13.85;6.60;;;;;;;10.97;57.81;102561.97;4788865;29;120017;-79
2022/05/09 04:18:07;;;;;;;11.57;4.22;;;;;;;11.02;58.09;102564.28;4789943;29;119244;-78
2022/05/09 04:20:34;;;;;;;9.90;4.53;;;;;;;10.99;58.36;102560.38;4781375;29;119684;-79
2022/05/09 04:23:00;;;;;;;15.70;4.85;;;;;;;11.03;58.22;102560.34;4794933;29;119787;-79
2022/05/09 04:25:27;;;;;;;7.88;3.92;;;;;;;11.06;58.57;102560.28;4799491;29;119873;-79
2022/05/09 04:27:54;;;;;;;11.57;4.40;;;;;;;11.08;57.67;102557.91;4801538;29;119237;-78
2022/05/09 04:30:19;;;;;;;8.88;4.45;;;;;;;11.06;58.34;102554.81;4801180;29;120116;-79
2022/05/09 04:32:45;;;;;;;7.53;3.85;;;;;;;11.21;58.44;102571.16;4799356;29;120092;-79
2022/05/09 04:35:20;;;;;;;13.02;4.72;;;;;;;11.26;58.20;102573.44;4784107;29;119843;-79
2022/05/09 04:37:48;;;;;;;9.30;4.53;;;;;;;11.27;58.34;102561.25;4782617;29;119227;-79
2022/05/09 04:40:28;;;;;;;10.40;5.00;;;;;;;11.38;58.00;102567.44;4802919;29;119215;-79
2022/05/09 04:42:56;;;;;;;10.38;4.28;;;;;;;11.34;58.25;102550.19;4799877;29;119424;-79
2022/05/09 04:45:22;;;;;;;11.52;4.28;;;;;;;11.46;58.82;102559.88;4800902;29;119246;-78
2022/05/09 04:47:50;;;;;;;10.30;4.85;;;;;;;11.54;58.60;102561.34;4799937;29;119554;-79
2022/05/09 04:50:18;;;;;;;10.80;5.28;;;;;;;11.55;58.73;102551.91;4799865;29;119215;-79
2022/05/09 04:52:44;;;;;;;14.15;5.43;;;;;;;11.68;58.90;102566.69;4809736;29;119673;-78
2022/05/09 04:55:11;;;;;;;11.38;5.43;;;;;;;11.73;59.43;102562.69;4804724;29;119184;-79
2022/05/09 04:57:38;;;;;;;13.93;5.18;;;;;;;11.76;59.35;102557.13;4801978;29;119541;-78
2022/05/09 05:00:05;;;;;;;10.13;4.72;;;;;;;11.90;59.31;102568.00;4799306;29;119137;-79
2022/05/09 05:02:31;;;;;;;16.50;4.95;;;;;;;11.98;59.35;102574.16;4805816;29;118423;-79
2022/05/09 05:04:57;;;;;;;15.13;4.80;;;;;;;12.02;59.17;102563.09;4801228;29;119511;-80
2022/05/09 05:07:22;;;;;;;11.27;5.32;;;;;;;12.17;59.25;102575.47;4813736;29;119549;-79
2022/05/09 05:09:48;;;;;;;13.52;5.35;;;;;;;12.23;59.57;102563.56;4799523;29;120285;-79
2022/05/09 05:12:14;;;;;;;12.82;5.75;;;;;;;12.34;59.88;102573.66;4801158;29;119247;-80
2022/05/09 05:14:39;;;;;;;16.35;6.57;;;;;;;12.42;60.10;102564.09;4802433;29;119464;-79
2022/05/09 05:17:05;;;;;;;16.70;6.63;;;;;;;12.51;60.13;102567.84;4793504;29;119406;-79
2022/05/09 05:19:35;;;;;;;16.10;6.88;;;;;;;12.61;60.28;102571.66;4783988;29;120114;-79
2022/05/09 05:22:05;;;;;;;14.47;7.03;;;;;;;12.72;60.27;102566.72;4787929;29;119381;-81
2022/05/09 05:24:36;;;;;;;14.73;7.18;;;;;;;12.82;60.44;102565.78;4785615;29;120697;-79
2022/05/09 05:27:03;;;;;;;13.40;7.22;;;;;;;12.92;60.62;102566.78;4788909;29;119625;-80
2022/05/09 05:29:28;;;;;;;17.63;7.60;;;;;;;12.96;60.37;102563.97;4784903;29;119176;-79
2022/05/09 05:31:54;;;;;;;14.45;8.05;;;;;;;13.05;61.14;102559.47;4783279;29;121680;-81
2022/05/09 05:34:20;;;;;;;16.55;9.45;;;;;;;13.10;61.42;102556.22;4798856;29;119181;-81
2022/05/09 05:36:51;;;;;;;20.00;10.90;;;;;;;13.28;62.18;102558.69;4784778;29;119350;-79
2022/05/09 05:39:18;;;;;;;19.67;12.07;;;;;;;13.46;63.03;102561.84;4788724;29;119351;-79
2022/05/09 05:41:45;;;;;;;21.48;12.60;;;;;;;13.63;63.52;102570.97;4768022;29;119130;-79
2022/05/09 05:44:11;;;;;;;20.45;12.35;;;;;;;13.75;63.83;102561.28;4788947;29;119963;-79
2022/05/09 05:46:39;;;;;;;19.48;12.25;;;;;;;13.93;63.85;102558.09;4797829;29;119449;-79
2022/05/09 05:49:05;;;;;;;19.65;11.57;;;;;;;14.13;64.10;102556.06;4801481;29;119310;-81
2022/05/09 05:51:31;;;;;;;19.35;11.32;;;;;;;14.34;64.15;102563.09;4801643;29;120318;-81
2022/05/09 05:53:58;;;;;;;19.08;10.98;;;;;;;14.40;63.81;102539.25;4801557;29;119452;-80
2022/05/09 05:56:25;;;;;;;24.23;11.15;;;;;;;14.63;63.88;102560.41;4818137;29;120745;-79
2022/05/09 05:58:50;;;;;;;20.33;11.18;;;;;;;14.71;63.41;102548.00;4801131;29;119227;-79
2022/05/09 06:01:18;;;;;;;17.65;10.20;;;;;;;14.86;63.24;102556.69;4785328;29;119512;-79
2022/05/09 06:03:44;;;;;;;15.15;9.02;;;;;;;14.93;63.05;102551.00;4791282;29;119474;-79
2022/05/09 06:06:14;;;;;;;17.42;8.73;;;;;;;15.09;62.69;102555.69;4805831;29;119300;-79
2022/05/09 06:08:40;;;;;;;15.18;8.68;;;;;;;15.16;62.34;102552.75;4802743;29;119012;-79
2022/05/09 06:11:07;;;;;;;13.52;7.97;;;;;;;15.23;61.46;102556.09;4801532;29;119412;-79
2022/05/09 06:13:35;;;;;;;15.07;6.82;;;;;;;15.26;61.16;102546.91;4803499;29;119233;-79
2022/05/09 06:16:01;;;;;;;11.85;6.75;;;;;;;15.26;60.33;102543.38;4801474;29;119263;-79
2022/05/09 06:18:32;;;;;;;12.23;6.07;;;;;;;15.31;60.18;102540.84;4790154;29;122353;-81
2022/05/09 06:21:03;;;;;;;12.32;6.00;;;;;;;15.38;59.57;102558.44;4811870;29;119483;-79
2022/05/09 06:23:29;;;;;;;13.95;6.60;;;;;;;15.38;59.20;102547.38;4802802;29;119567;-79
2022/05/09 06:25:56;;;;;;;15.30;6.65;;;;;;;15.39;58.76;102551.72;4798341;29;119391;-81
2022/05/09 06:28:23;;;;;;;15.93;6.20;;;;;;;15.38;58.78;102542.63;4785228;29;119522;-79
2022/05/09 06:30:50;;;;;;;16.35;6.70;;;;;;;15.42;59.49;102534.25;4783131;29;120450;-79
2022/05/09 06:33:24;;;;;;;14.65;6.30;;;;;;;15.55;59.55;102541.34;4784763;29;119332;-79
2022/05/09 06:35:52;;;;;;;13.02;5.25;;;;;;;15.60;58.34;102545.56;4802887;29;119271;-79
2022/05/09 06:38:18;;;;;;;11.43;5.30;;;;;;;15.60;57.63;102531.75;4802208;29;120270;-79
2022/05/09 06:40:44;;;;;;;13.18;4.63;;;;;;;15.56;57.50;102525.50;4801176;29;119599;-79
2022/05/09 06:43:13;;;;;;;13.73;5.50;;;;;;;15.60;56.72;102520.66;4785930;29;119509;-79
2022/05/09 06:45:44;;;;;;;10.73;4.78;;;;;;;15.66;56.98;102524.47;4801698;29;120917;-79
2022/05/09 06:48:10;;;;;;;13.15;5.13;;;;;;;15.73;57.58;102527.00;4796578;29;119420;-80
2022/05/09 06:50:38;;;;;;;12.25;4.75;;;;;;;15.77;56.94;102524.91;4808538;29;119747;-80
2022/05/09 06:53:05;;;;;;;11.95;4.65;;;;;;;15.81;56.71;102531.09;4805651;29;119792;-79
2022/05/09 06:55:31;;;;;;;12.50;4.53;;;;;;;15.82;57.00;102518.81;4804006;29;119333;-79
2022/05/09 06:57:57;;;;;;;13.25;4.50;;;;;;;15.93;56.72;102519.28;4802878;29;121274;-80
2022/05/09 07:00:24;;;;;;;9.05;3.47;;;;;;;15.98;55.05;102525.47;4804406;29;119746;-80
2022/05/09 07:02:51;;;;;;;15.40;3.22;;;;;;;15.94;53.78;102512.50;4804789;29;119332;-80
2022/05/09 07:05:20;;;;;;;9.20;3.67;;;;;;;16.02;53.56;102517.81;4797537;29;119859;-79
2022/05/09 07:07:51;;;;;;;10.32;2.95;;;;;;;16.07;52.63;102531.09;4782447;29;119858;-79
2022/05/09 07:10:18;;;;;;;9.18;2.67;;;;;;;16.11;52.58;102526.25;4802645;29;119983;-79
2022/05/09 07:12:48;;;;;;;7.07;2.88;;;;;;;16.15;53.82;102516.59;4803070;29;119302;-79
2022/05/09 07:15:17;;;;;;;8.98;2.90;;;;;;;16.25;53.40;102525.78;4795429;29;119733;-79
2022/05/09 07:17:43;;;;;;;8.95;2.70;;;;;;;16.26;53.25;102524.56;4802830;29;120140;-81
2022/05/09 07:20:09;;;;;;;13.77;3.22;;;;;;;16.34;52.48;102522.34;4806594;29;119417;-81
2022/05/09 07:22:35;;;;;;;8.98;2.78;;;;;;;16.39;51.84;102525.31;4805130;29;119166;-79
2022/05/09 07:25:02;;;;;;;10.57;3.05;;;;;;;16.42;51.38;102532.72;4799365;29;119520;-80
2022/05/09 07:27:30;;;;;;;10.90;3.00;;;;;;;16.51;50.86;102538.34;4806387;29;119925;-79
2022/05/09 07:29:56;;;;;;;6.20;2.83;;;;;;;16.50;51.13;102520.19;4805582;29;119389;-80
2022/05/09 07:32:23;;;;;;;10.23;2.83;;;;;;;16.64;51.44;102530.03;4812852;29;119596;-79
2022/05/09 07:34:49;;;;;;;11.73;2.55;;;;;;;16.71;49.81;102523.47;4805867;29;119299;-79
2022/05/09 07:37:15;;;;;;;7.50;3.10;;;;;;;16.77;50.05;102525.22;4803008;29;119548;-80
2022/05/09 07:39:41;;;;;;;11.30;2.70;;;;;;;16.87;49.65;102534.41;4805335;29;119665;-80
2022/05/09 07:42:08;;;;;;;8.05;2.63;;;;;;;16.96;48.99;102531.69;4803224;29;120910;-81
2022/05/09 07:44:34;;;;;;;8.85;2.25;;;;;;;17.02;49.96;102523.56;4804266;29;119370;-80
2022/05/09 07:46:59;;;;;;;11.15;2.80;;;;;;;17.19;49.74;102528.50;4803892;29;119503;-80
2022/05/09 07:49:25;;;;;;;15.38;2.60;;;;;;;17.40;49.27;102534.47;4802889;29;119631;-79
2022/05/09 07:51:51;;;;;;;9.60;2.65;;;;;;;17.52;48.75;102528.09;4801743;29;120207;-79
2022/05/09 07:54:16;;;;;;;8.32;2.50;;;;;;;17.72;48.55;102536.84;4802437;29;119495;-79
2022/05/09 07:56:43;;;;;;;7.45;2.42;;;;;;;17.89;47.92;102537.38;4817147;29;121224;-79
2022/05/09 07:59:11;;;;;;;8.77;3.17;;;;;;;18.06;47.54;102530.34;4801954;29;119963;-79
2022/05/09 08:01:36;;;;;;;7.20;2.40;;;;;;;18.23;46.74;102533.66;4803104;29;119661;-79
2022/05/09 08:04:02;;;;;;;9.85;2.90;;;;;;;18.41;45.87;102530.13;4800985;29;119455;-80
2022/05/09 08:06:28;;;;;;;9.77;2.83;;;;;;;18.55;46.41;102532.31;4806114;29;119526;-79
2022/05/09 08:08:53;;;;;;;7.18;2.70;;;;;;;18.71;47.28;102520.16;4806398;29;120332;-79
2022/05/09 08:11:20;;;;;;;9.65;2.45;;;;;;;18.87;46.34;102522.63;4801931;29;120284;-79
2022/05/09 08:13:46;;;;;;;8.50;2.70;;;;;;;19.02;45.98;102520.75;4803239;29;119841;-79
2022/05/09 08:16:14;;;;;;;7.78;2.35;;;;;;;19.16;45.25;102529.69;4801343;29;119379;-79
2022/05/09 08:18:40;;;;;;;10.48;2.88;;;;;;;19.19;45.72;102517.66;4794250;29;119505;-79
2022/05/09 08:21:09;;;;;;;9.15;2.30;;;;;;;19.36;44.44;102520.84;4794417;29;119475;-79
2022/05/09 08:23:35;;;;;;;7.13;2.22;;;;;;;19.44;44.08;102524.88;4802657;29;120606;-79
2022/05/09 08:26:03;;;;;;;8.13;2.60;;;;;;;19.56;42.37;102526.72;4807150;29;119837;-79
2022/05/09 08:28:29;;;;;;;7.20;2.63;;;;;;;19.62;42.04;102533.19;4806446;29;119871;-79
2022/05/09 08:30:55;;;;;;;6.32;2.22;;;;;;;19.69;42.03;102538.44;4792680;29;120202;-79
2022/05/09 08:33:25;;;;;;;7.07;2.50;;;;;;;19.77;43.20;102538.88;4798814;29;119560;-80
2022/05/09 08:35:53;;;;;;;8.05;2.60;;;;;;;19.85;42.54;102534.50;4814826;29;119817;-79
2022/05/09 08:38:19;;;;;;;12.27;2.80;;;;;;;19.97;42.86;102541.88;4806029;29;119725;-79
2022/05/09 08:40:57;;;;;;;6.80;2.20;;;;;;;20.01;42.94;102538.91;4799499;29;119469;-79
2022/05/09 08:43:28;;;;;;;8.48;2.30;;;;;;;20.18;43.10;102545.66;4793964;29;120533;-79
2022/05/09 08:46:04;;;;;;;11.15;2.85;;;;;;;20.19;42.41;102539.59;4799456;29;119424;-79
2022/05/09 08:48:45;;;;;;;9.50;3.10;;;;;;;20.29;41.65;102533.97;4793878;29;119327;-80
2022/05/09 08:51:38;;;;;;;12.57;2.90;;;;;;;20.31;43.14;102528.69;4799757;29;119476;-79
2022/05/09 08:54:09;;;;;;;6.75;2.30;;;;;;;20.38;44.11;102531.13;4793305;29;120275;-80
2022/05/09 08:56:37;;;;;;;7.32;2.25;;;;;;;20.48;42.73;102527.06;4793585;29;119483;-80
2022/05/09 08:59:09;;;;;;;10.25;2.28;;;;;;;20.53;42.07;102532.75;4784403;29;120012;-79
2022/05/09 09:01:42;;;;;;;6.43;2.60;;;;;;;20.58;41.30;102517.38;4806936;29;120553;-80
2022/05/09 09:04:35;;;;;;;8.27;2.47;;;;;;;20.58;41.99;102517.38;4805261;29;119700;-79
2022/05/09 09:07:36;;;;;;;7.07;2.30;;;;;;;20.56;41.60;102514.28;4802842;29;119832;-80
2022/05/09 09:10:02;;;;;;;8.82;2.60;;;;;;;20.53;41.21;102509.66;4792068;29;120191;-79
2022/05/09 09:12:57;;;;;;;9.60;2.67;;;;;;;20.49;42.35;102500.72;4795790;29;119479;-79
2022/05/09 09:15:42;;;;;;;7.57;2.40;;;;;;;20.54;41.49;102500.06;4784702;29;119589;-79
2022/05/09 09:18:29;;;;;;;6.78;2.33;;;;;;;20.56;40.91;102492.00;4801158;29;119363;-80
2022/05/09 09:21:11;;;;;;;8.13;2.33;;;;;;;20.60;41.36;102484.22;4790645;29;120365;-80
2022/05/09 09:23:44;;;;;;;7.20;1.98;;;;;;;20.61;40.61;102488.56;4808057;29;119665;-79
2022/05/09 09:26:22;;;;;;;6.63;2.20;;;;;;;20.64;40.83;102493.19;4800120;29;120950;-79
2022/05/09 09:28:56;;;;;;;47.47;6.22;;;;;;;20.64;40.34;102492.41;4799047;29;119438;-79
2022/05/09 09:31:34;;;;;;;15.13;4.43;;;;;;;20.68;40.52;102490.97;4799326;29;119663;-79
2022/05/09 09:34:16;;;;;;;6.63;2.60;;;;;;;20.70;39.83;102490.50;4800107;29;122358;-79
2022/05/09 09:36:49;;;;;;;9.30;2.55;;;;;;;20.68;38.85;102481.84;4796183;29;119628;-79
2022/05/09 09:39:19;;;;;;;8.50;2.50;;;;;;;20.68;40.00;102490.97;4795430;29;120091;-80
2022/05/09 09:41:46;;;;;;;7.22;2.05;;;;;;;20.64;38.81;102484.81;4811855;29;119622;-79
2022/05/09 09:44:34;;;;;;;5.25;2.30;;;;;;;20.67;38.46;102481.06;4798795;29;119937;-80
2022/05/09 09:47:21;;;;;;;7.32;2.38;;;;;;;20.71;39.49;102487.22;4805426;29;120056;-79
2022/05/09 09:50:09;;;;;;;5.57;1.80;;;;;;;20.77;39.36;102490.13;4795460;29;119917;-79
2022/05/09 09:52:46;;;;;;;8.40;2.70;;;;;;;20.80;38.73;102483.56;4800991;29;119600;-79
2022/05/09 09:55:28;;;;;;;5.50;2.17;;;;;;;20.79;39.12;102485.59;4799556;29;119411;-80
2022/05/09 09:57:56;;;;;;;7.78;2.10;;;;;;;20.68;38.10;102459.53;4805051;29;119429;-79
2022/05/09 10:00:30;;;;;;;3.92;1.92;;;;;;;20.80;37.92;102475.97;4799111;29;119579;-79
2022/05/09 10:03:16;;;;;;;5.55;2.40;;;;;;;20.75;37.79;102473.84;4782437;29;120705;-79
2022/05/09 10:05:45;;;;;;;7.28;2.55;;;;;;;20.76;37.87;102475.41;4795511;29;120140;-79
2022/05/09 10:08:26;;;;;;;5.63;2.33;;;;;;;20.75;37.39;102470.31;4783728;29;120887;-80
2022/05/09 10:11:20;;;;;;;4.30;2.10;;;;;;;20.71;38.61;102464.91;4794048;29;120299;-79
2022/05/09 10:13:50;;;;;;;6.90;2.15;;;;;;;20.73;39.23;102475.59;4800649;29;119372;-79
2022/05/09 10:16:25;;;;;;;5.10;2.20;;;;;;;20.78;39.96;102456.16;4798086;29;122002;-79
2022/05/09 10:18:52;;;;;;;5.35;2.22;;;;;;;20.73;38.27;102456.84;4799132;29;119448;-80
2022/05/09 10:24:47;;;;;;;7.03;2.33;;;;;;;20.78;38.01;102455.41;4807838;29;120407;-79
2022/05/09 10:27:28;;;;;;;5.13;2.47;;;;;;;20.74;37.74;102457.59;4803329;29;119630;-79
2022/05/09 10:29:58;;;;;;;6.30;2.33;;;;;;;20.69;38.04;102449.91;4803633;29;119658;-80
2022/05/09 10:32:49;;;;;;;7.88;2.35;;;;;;;20.69;38.97;102444.34;4801475;29;119653;-79
2022/05/09 10:35:23;;;;;;;8.35;3.00;;;;;;;20.67;38.81;102435.69;4790837;29;119661;-79
2022/05/09 10:37:54;;;;;;;7.13;2.30;;;;;;;20.71;39.00;102437.03;4801094;29;120318;-79
2022/05/09 10:40:36;;;;;;;7.75;2.35;;;;;;;20.65;38.50;102419.44;4799458;29;119673;-79
2022/05/09 10:43:30;;;;;;;7.30;2.70;;;;;;;20.71;38.30;102425.88;4803979;29;119436;-79
2022/05/09 10:45:56;;;;;;;6.65;2.60;;;;;;;20.75;37.82;102422.91;4802798;29;119547;-79
2022/05/09 10:48:38;;;;;;;7.63;2.78;;;;;;;20.72;38.21;102413.47;4807243;29;119450;-79
2022/05/09 10:51:10;;;;;;;6.57;2.75;;;;;;;20.70;38.31;102404.03;4801522;29;119446;-79
2022/05/09 10:53:55;;;;;;;8.23;2.67;;;;;;;20.67;38.46;102407.81;4803174;29;119539;-79
2022/05/09 10:56:45;;;;;;;5.80;2.40;;;;;;;20.65;38.28;102405.50;4806032;29;119501;-79
2022/05/09 10:59:21;;;;;;;4.95;2.28;;;;;;;20.67;39.57;102393.84;4806412;29;119457;-79
2022/05/09 11:02:07;;;;;;;8.00;2.75;;;;;;;20.58;37.10;102383.53;4802321;29;119628;-79
2022/05/09 11:04:37;;;;;;;12.32;2.65;;;;;;;20.55;37.94;102384.50;4799485;29;120119;-79
2022/05/09 11:07:26;;;;;;;7.57;2.50;;;;;;;20.61;37.57;102396.56;4808946;29;119833;-79
2022/05/09 11:10:10;;;;;;;6.50;2.60;;;;;;;20.64;38.16;102392.81;4803767;29;119609;-80
2022/05/09 11:13:01;;;;;;;8.75;2.80;;;;;;;20.64;37.72;102392.03;4815710;29;119901;-79
2022/05/09 11:15:52;;;;;;;7.45;2.83;;;;;;;20.61;38.36;102390.97;4802325;29;119510;-79
2022/05/09 11:18:24;;;;;;;8.10;3.10;;;;;;;20.62;39.18;102389.72;4799120;29;119820;-79
2022/05/09 11:21:14;;;;;;;7.13;2.95;;;;;;;20.60;38.12;102375.50;4801988;29;119566;-79
2022/05/09 11:23:54;;;;;;;9.48;3.15;;;;;;;20.52;38.89;102363.16;4810668;29;119771;-79
2022/05/09 11:26:30;;;;;;;9.77;3.88;;;;;;;20.55;39.45;102367.78;4806969;29;119653;-79
2022/05/09 11:29:21;;;;;;;14.27;4.05;;;;;;;20.57;39.38;102364.50;4798671;29;121399;-79
2022/05/09 11:32:19;;;;;;;8.43;2.90;;;;;;;20.57;39.47;102364.50;4800732;29;119452;-79
2022/05/09 11:34:56;;;;;;;7.28;2.78;;;;;;;20.59;37.95;102360.03;4792730;29;119518;-79
2022/05/09 11:37:52;;;;;;;10.20;3.45;;;;;;;20.59;38.90;102362.03;4793969;29;119453;-79